sensor_id;sensor_type;location;lat;lon;timestamp;P1;durP1;ratioP1;P2;durP2;ratioP2
38609;SDS011;24367;51.640;9.566;2023-03-14T00:02:10;5.95;;;3.33;;
38609;SDS011;24367;51.640;9.566;2023-03-14T00:04:36;4.53;;;3.05;;
38609;SDS011;24367;51.640;9.566;2023-03-14T00:07:03;5.88;;;3.17;;
38609;SDS011;24367;51.640;9.566;2023-03-14T00:09:31;5.40;;;2.85;;
38609;SDS011;24367;51.640;9.566;2023-03-14T00:11:57;5.70;;;3.13;;
38609;SDS011;24367;51.640;9.566;2023-03-14T00:14:23;4.55;;;2.88;;
38609;SDS011;24367;51.640;9.566;2023-03-14T00:16:50;5.50;;;2.97;;
38609;SDS011;24367;51.640;9.566;2023-03-14T00:19:16;6.53;;;3.03;;
38609;SDS011;24367;51.640;9.566;2023-03-14T00:21:42;5.70;;;2.92;;
38609;SDS011;24367;51.640;9.566;2023-03-14T00:24:09;6.38;;;2.90;;
38609;SDS011;24367;51.640;9.566;2023-03-14T00:26:36;5.15;;;3.47;;
38609;SDS011;24367;51.640;9.566;2023-03-14T00:29:05;5.07;;;3.08;;
38609;SDS011;24367;51.640;9.566;2023-03-14T00:31:31;5.57;;;3.38;;
38609;SDS011;24367;51.640;9.566;2023-03-14T00:33:59;7.32;;;3.47;;
38609;SDS011;24367;51.640;9.566;2023-03-14T00:36:25;4.93;;;3.17;;
38609;SDS011;24367;51.640;9.566;2023-03-14T00:38:52;4.28;;;2.80;;
38609;SDS011;24367;51.640;9.566;2023-03-14T00:41:20;4.70;;;2.97;;
38609;SDS011;24367;51.640;9.566;2023-03-14T00:43:49;4.78;;;2.90;;
38609;SDS011;24367;51.640;9.566;2023-03-14T00:46:16;3.88;;;2.60;;
38609;SDS011;24367;51.640;9.566;2023-03-14T00:48:44;5.93;;;2.92;;
38609;SDS011;24367;51.640;9.566;2023-03-14T00:51:11;4.93;;;2.92;;
38609;SDS011;24367;51.640;9.566;2023-03-14T00:53:42;5.38;;;3.00;;
38609;SDS011;24367;51.640;9.566;2023-03-14T00:56:09;5.93;;;3.08;;
38609;SDS011;24367;51.640;9.566;2023-03-14T00:58:36;4.45;;;3.08;;
38609;SDS011;24367;51.640;9.566;2023-03-14T01:01:08;8.02;;;3.20;;
38609;SDS011;24367;51.640;9.566;2023-03-14T01:03:35;4.90;;;3.03;;
38609;SDS011;24367;51.640;9.566;2023-03-14T01:06:09;5.00;;;2.60;;
38609;SDS011;24367;51.640;9.566;2023-03-14T01:11:04;5.05;;;3.30;;
38609;SDS011;24367;51.640;9.566;2023-03-14T01:13:32;3.97;;;2.50;;
38609;SDS011;24367;51.640;9.566;2023-03-14T01:16:00;4.28;;;2.60;;
38609;SDS011;24367;51.640;9.566;2023-03-14T01:18:30;3.95;;;2.42;;
38609;SDS011;24367;51.640;9.566;2023-03-14T01:20:57;3.63;;;2.55;;
38609;SDS011;24367;51.640;9.566;2023-03-14T01:23:23;4.82;;;3.20;;
38609;SDS011;24367;51.640;9.566;2023-03-14T01:25:49;3.78;;;2.45;;
38609;SDS011;24367;51.640;9.566;2023-03-14T01:28:18;4.35;;;2.45;;
38609;SDS011;24367;51.640;9.566;2023-03-14T01:30:45;4.55;;;3.13;;
38609;SDS011;24367;51.640;9.566;2023-03-14T01:33:11;3.75;;;2.50;;
38609;SDS011;24367;51.640;9.566;2023-03-14T01:35:43;4.05;;;2.38;;
38609;SDS011;24367;51.640;9.566;2023-03-14T01:38:09;4.07;;;2.50;;
38609;SDS011;24367;51.640;9.566;2023-03-14T01:40:41;3.20;;;2.40;;
38609;SDS011;24367;51.640;9.566;2023-03-14T01:43:12;4.30;;;2.70;;
38609;SDS011;24367;51.640;9.566;2023-03-14T01:46:05;4.47;;;2.75;;
38609;SDS011;24367;51.640;9.566;2023-03-14T01:48:42;3.92;;;2.67;;
38609;SDS011;24367;51.640;9.566;2023-03-14T01:51:12;4.63;;;2.72;;
38609;SDS011;24367;51.640;9.566;2023-03-14T01:53:40;4.00;;;2.10;;
38609;SDS011;24367;51.640;9.566;2023-03-14T01:56:07;4.22;;;3.10;;
38609;SDS011;24367;51.640;9.566;2023-03-14T01:58:35;4.78;;;2.50;;
38609;SDS011;24367;51.640;9.566;2023-03-14T02:01:04;3.88;;;2.50;;
38609;SDS011;24367;51.640;9.566;2023-03-14T02:03:34;4.57;;;2.75;;
38609;SDS011;24367;51.640;9.566;2023-03-14T02:06:04;3.55;;;2.40;;
38609;SDS011;24367;51.640;9.566;2023-03-14T02:08:35;4.63;;;2.67;;
38609;SDS011;24367;51.640;9.566;2023-03-14T02:11:07;3.55;;;2.28;;
38609;SDS011;24367;51.640;9.566;2023-03-14T02:13:53;4.75;;;2.80;;
38609;SDS011;24367;51.640;9.566;2023-03-14T02:16:52;4.65;;;2.35;;
38609;SDS011;24367;51.640;9.566;2023-03-14T02:19:24;3.80;;;2.38;;
38609;SDS011;24367;51.640;9.566;2023-03-14T02:22:07;3.63;;;2.45;;
38609;SDS011;24367;51.640;9.566;2023-03-14T02:24:59;3.13;;;2.08;;
38609;SDS011;24367;51.640;9.566;2023-03-14T02:27:30;3.63;;;2.33;;
38609;SDS011;24367;51.640;9.566;2023-03-14T02:29:57;3.30;;;2.13;;
38609;SDS011;24367;51.640;9.566;2023-03-14T02:32:26;4.57;;;2.67;;
38609;SDS011;24367;51.640;9.566;2023-03-14T02:34:54;3.40;;;2.25;;
38609;SDS011;24367;51.640;9.566;2023-03-14T02:37:23;3.67;;;2.55;;
38609;SDS011;24367;51.640;9.566;2023-03-14T02:39:52;3.05;;;2.00;;
38609;SDS011;24367;51.640;9.566;2023-03-14T02:42:19;3.53;;;2.13;;
38609;SDS011;24367;51.640;9.566;2023-03-14T02:44:52;3.90;;;2.58;;
38609;SDS011;24367;51.640;9.566;2023-03-14T02:47:25;5.60;;;2.88;;
38609;SDS011;24367;51.640;9.566;2023-03-14T02:52:27;3.70;;;2.35;;
38609;SDS011;24367;51.640;9.566;2023-03-14T02:54:55;3.67;;;2.20;;
38609;SDS011;24367;51.640;9.566;2023-03-14T02:57:22;4.30;;;2.50;;
38609;SDS011;24367;51.640;9.566;2023-03-14T02:59:48;4.13;;;2.10;;
38609;SDS011;24367;51.640;9.566;2023-03-14T03:02:19;3.00;;;1.88;;
38609;SDS011;24367;51.640;9.566;2023-03-14T03:04:45;3.70;;;2.08;;
38609;SDS011;24367;51.640;9.566;2023-03-14T03:07:15;3.60;;;2.17;;
38609;SDS011;24367;51.640;9.566;2023-03-14T03:09:41;3.95;;;2.10;;
38609;SDS011;24367;51.640;9.566;2023-03-14T03:12:07;2.80;;;2.00;;
38609;SDS011;24367;51.640;9.566;2023-03-14T03:14:34;3.17;;;2.25;;
38609;SDS011;24367;51.640;9.566;2023-03-14T03:17:03;3.53;;;2.00;;
38609;SDS011;24367;51.640;9.566;2023-03-14T03:19:31;3.08;;;1.75;;
38609;SDS011;24367;51.640;9.566;2023-03-14T03:21:57;3.90;;;2.15;;
38609;SDS011;24367;51.640;9.566;2023-03-14T03:24:24;3.08;;;2.03;;
38609;SDS011;24367;51.640;9.566;2023-03-14T03:26:50;3.05;;;1.98;;
38609;SDS011;24367;51.640;9.566;2023-03-14T03:29:17;3.58;;;2.00;;
38609;SDS011;24367;51.640;9.566;2023-03-14T03:31:44;3.80;;;1.67;;
38609;SDS011;24367;51.640;9.566;2023-03-14T03:34:11;3.22;;;2.13;;
38609;SDS011;24367;51.640;9.566;2023-03-14T03:36:40;2.72;;;1.80;;
38609;SDS011;24367;51.640;9.566;2023-03-14T03:39:06;3.05;;;1.85;;
38609;SDS011;24367;51.640;9.566;2023-03-14T03:41:33;3.05;;;1.90;;
38609;SDS011;24367;51.640;9.566;2023-03-14T03:44:00;3.65;;;2.00;;
38609;SDS011;24367;51.640;9.566;2023-03-14T03:46:27;3.53;;;1.95;;
38609;SDS011;24367;51.640;9.566;2023-03-14T03:48:54;3.33;;;2.00;;
38609;SDS011;24367;51.640;9.566;2023-03-14T03:51:21;2.92;;;1.80;;
38609;SDS011;24367;51.640;9.566;2023-03-14T03:53:48;3.60;;;1.80;;
38609;SDS011;24367;51.640;9.566;2023-03-14T03:56:19;3.25;;;1.80;;
38609;SDS011;24367;51.640;9.566;2023-03-14T03:58:46;2.88;;;1.92;;
38609;SDS011;24367;51.640;9.566;2023-03-14T04:01:12;3.20;;;2.00;;
38609;SDS011;24367;51.640;9.566;2023-03-14T04:03:39;3.00;;;1.55;;
38609;SDS011;24367;51.640;9.566;2023-03-14T04:06:07;2.65;;;1.70;;
38609;SDS011;24367;51.640;9.566;2023-03-14T04:08:36;3.40;;;2.00;;
38609;SDS011;24367;51.640;9.566;2023-03-14T04:11:05;2.92;;;1.70;;
38609;SDS011;24367;51.640;9.566;2023-03-14T04:13:50;3.17;;;1.80;;
38609;SDS011;24367;51.640;9.566;2023-03-14T04:16:17;2.53;;;1.60;;
38609;SDS011;24367;51.640;9.566;2023-03-14T04:18:46;3.90;;;2.05;;
38609;SDS011;24367;51.640;9.566;2023-03-14T04:21:12;3.30;;;2.08;;
38609;SDS011;24367;51.640;9.566;2023-03-14T04:23:45;3.08;;;1.75;;
38609;SDS011;24367;51.640;9.566;2023-03-14T04:26:12;2.55;;;1.75;;
38609;SDS011;24367;51.640;9.566;2023-03-14T04:28:39;2.53;;;1.65;;
38609;SDS011;24367;51.640;9.566;2023-03-14T04:31:07;2.53;;;1.50;;
38609;SDS011;24367;51.640;9.566;2023-03-14T04:33:34;3.80;;;2.00;;
38609;SDS011;24367;51.640;9.566;2023-03-14T04:36:02;3.15;;;1.98;;
38609;SDS011;24367;51.640;9.566;2023-03-14T04:38:29;3.35;;;1.90;;
38609;SDS011;24367;51.640;9.566;2023-03-14T04:40:56;3.20;;;2.00;;
38609;SDS011;24367;51.640;9.566;2023-03-14T04:43:29;3.65;;;2.13;;
38609;SDS011;24367;51.640;9.566;2023-03-14T04:46:02;2.85;;;1.63;;
38609;SDS011;24367;51.640;9.566;2023-03-14T04:48:29;2.75;;;1.70;;
38609;SDS011;24367;51.640;9.566;2023-03-14T04:50:57;2.50;;;1.42;;
38609;SDS011;24367;51.640;9.566;2023-03-14T04:53:24;2.65;;;1.60;;
38609;SDS011;24367;51.640;9.566;2023-03-14T04:55:54;2.78;;;1.45;;
38609;SDS011;24367;51.640;9.566;2023-03-14T04:58:23;2.80;;;1.52;;
38609;SDS011;24367;51.640;9.566;2023-03-14T05:00:53;3.00;;;1.67;;
38609;SDS011;24367;51.640;9.566;2023-03-14T05:03:49;2.80;;;1.55;;
38609;SDS011;24367;51.640;9.566;2023-03-14T05:06:31;2.72;;;1.52;;
38609;SDS011;24367;51.640;9.566;2023-03-14T05:09:06;2.30;;;1.52;;
38609;SDS011;24367;51.640;9.566;2023-03-14T05:11:46;2.20;;;1.30;;
38609;SDS011;24367;51.640;9.566;2023-03-14T05:14:31;3.53;;;1.83;;
38609;SDS011;24367;51.640;9.566;2023-03-14T05:17:23;2.25;;;1.45;;
38609;SDS011;24367;51.640;9.566;2023-03-14T05:20:27;2.85;;;1.90;;
38609;SDS011;24367;51.640;9.566;2023-03-14T05:23:13;2.65;;;1.75;;
38609;SDS011;24367;51.640;9.566;2023-03-14T05:26:03;2.45;;;1.35;;
38609;SDS011;24367;51.640;9.566;2023-03-14T05:28:37;2.88;;;1.77;;
38609;SDS011;24367;51.640;9.566;2023-03-14T05:34:27;3.25;;;1.83;;
38609;SDS011;24367;51.640;9.566;2023-03-14T05:37:24;5.68;;;1.48;;
38609;SDS011;24367;51.640;9.566;2023-03-14T05:40:17;3.28;;;1.60;;
38609;SDS011;24367;51.640;9.566;2023-03-14T05:42:56;2.53;;;1.70;;
38609;SDS011;24367;51.640;9.566;2023-03-14T05:45:49;4.03;;;1.65;;
38609;SDS011;24367;51.640;9.566;2023-03-14T05:48:37;4.05;;;1.90;;
38609;SDS011;24367;51.640;9.566;2023-03-14T05:51:23;3.85;;;1.60;;
38609;SDS011;24367;51.640;9.566;2023-03-14T05:54:13;3.90;;;1.42;;
38609;SDS011;24367;51.640;9.566;2023-03-14T05:57:06;2.40;;;1.55;;
38609;SDS011;24367;51.640;9.566;2023-03-14T06:00:09;2.15;;;1.33;;
38609;SDS011;24367;51.640;9.566;2023-03-14T06:02:39;5.57;;;1.65;;
38609;SDS011;24367;51.640;9.566;2023-03-14T06:05:16;2.53;;;1.60;;
38609;SDS011;24367;51.640;9.566;2023-03-14T06:07:44;2.50;;;1.42;;
38609;SDS011;24367;51.640;9.566;2023-03-14T06:10:11;2.58;;;1.40;;
38609;SDS011;24367;51.640;9.566;2023-03-14T06:12:37;3.97;;;1.60;;
38609;SDS011;24367;51.640;9.566;2023-03-14T06:15:04;4.47;;;1.73;;
38609;SDS011;24367;51.640;9.566;2023-03-14T06:17:33;6.00;;;1.70;;
38609;SDS011;24367;51.640;9.566;2023-03-14T06:20:05;2.42;;;1.60;;
38609;SDS011;24367;51.640;9.566;2023-03-14T06:22:31;2.80;;;1.30;;
38609;SDS011;24367;51.640;9.566;2023-03-14T06:24:59;2.30;;;1.38;;
38609;SDS011;24367;51.640;9.566;2023-03-14T06:27:26;4.07;;;1.38;;
38609;SDS011;24367;51.640;9.566;2023-03-14T06:29:55;2.20;;;1.35;;
38609;SDS011;24367;51.640;9.566;2023-03-14T06:32:23;2.05;;;1.23;;
38609;SDS011;24367;51.640;9.566;2023-03-14T06:34:52;4.15;;;1.38;;
38609;SDS011;24367;51.640;9.566;2023-03-14T06:37:19;2.53;;;1.30;;
38609;SDS011;24367;51.640;9.566;2023-03-14T06:39:46;2.17;;;1.17;;
38609;SDS011;24367;51.640;9.566;2023-03-14T06:42:23;2.40;;;1.40;;
38609;SDS011;24367;51.640;9.566;2023-03-14T06:44:51;2.35;;;1.40;;
38609;SDS011;24367;51.640;9.566;2023-03-14T06:47:18;3.47;;;1.30;;
38609;SDS011;24367;51.640;9.566;2023-03-14T06:49:45;6.18;;;1.48;;
38609;SDS011;24367;51.640;9.566;2023-03-14T06:52:12;2.63;;;1.40;;
38609;SDS011;24367;51.640;9.566;2023-03-14T06:54:38;1.88;;;1.05;;
38609;SDS011;24367;51.640;9.566;2023-03-14T06:57:05;3.60;;;1.38;;
38609;SDS011;24367;51.640;9.566;2023-03-14T06:59:32;3.67;;;1.13;;
38609;SDS011;24367;51.640;9.566;2023-03-14T07:01:59;3.03;;;1.40;;
38609;SDS011;24367;51.640;9.566;2023-03-14T07:04:25;2.63;;;1.00;;
38609;SDS011;24367;51.640;9.566;2023-03-14T07:06:52;1.65;;;1.00;;
38609;SDS011;24367;51.640;9.566;2023-03-14T07:09:19;3.50;;;1.25;;
38609;SDS011;24367;51.640;9.566;2023-03-14T07:11:51;2.38;;;1.35;;
38609;SDS011;24367;51.640;9.566;2023-03-14T07:14:18;2.15;;;1.27;;
38609;SDS011;24367;51.640;9.566;2023-03-14T07:16:46;2.55;;;1.27;;
38609;SDS011;24367;51.640;9.566;2023-03-14T07:19:12;4.35;;;1.58;;
38609;SDS011;24367;51.640;9.566;2023-03-14T07:21:39;3.03;;;1.00;;
38609;SDS011;24367;51.640;9.566;2023-03-14T07:24:09;2.40;;;1.38;;
38609;SDS011;24367;51.640;9.566;2023-03-14T07:26:36;3.63;;;1.10;;
38609;SDS011;24367;51.640;9.566;2023-03-14T07:29:02;3.20;;;1.20;;
38609;SDS011;24367;51.640;9.566;2023-03-14T07:31:29;3.65;;;1.40;;
38609;SDS011;24367;51.640;9.566;2023-03-14T07:33:57;3.75;;;1.30;;
38609;SDS011;24367;51.640;9.566;2023-03-14T07:36:28;3.53;;;1.25;;
38609;SDS011;24367;51.640;9.566;2023-03-14T07:38:54;3.33;;;1.33;;
38609;SDS011;24367;51.640;9.566;2023-03-14T07:41:33;2.78;;;1.50;;
38609;SDS011;24367;51.640;9.566;2023-03-14T07:44:18;2.42;;;1.13;;
38609;SDS011;24367;51.640;9.566;2023-03-14T07:46:45;2.83;;;1.17;;
38609;SDS011;24367;51.640;9.566;2023-03-14T07:49:13;3.97;;;1.20;;
38609;SDS011;24367;51.640;9.566;2023-03-14T07:51:39;2.80;;;1.20;;
38609;SDS011;24367;51.640;9.566;2023-03-14T07:54:05;4.90;;;1.30;;
38609;SDS011;24367;51.640;9.566;2023-03-14T07:56:32;2.92;;;1.05;;
38609;SDS011;24367;51.640;9.566;2023-03-14T07:58:59;3.50;;;1.40;;
38609;SDS011;24367;51.640;9.566;2023-03-14T08:01:26;2.55;;;1.23;;
38609;SDS011;24367;51.640;9.566;2023-03-14T08:03:52;7.30;;;1.20;;
38609;SDS011;24367;51.640;9.566;2023-03-14T08:06:20;6.00;;;1.60;;
38609;SDS011;24367;51.640;9.566;2023-03-14T08:08:46;3.75;;;1.35;;
38609;SDS011;24367;51.640;9.566;2023-03-14T08:11:13;2.97;;;1.48;;
38609;SDS011;24367;51.640;9.566;2023-03-14T08:13:39;3.80;;;1.30;;
38609;SDS011;24367;51.640;9.566;2023-03-14T08:16:06;4.68;;;1.33;;
38609;SDS011;24367;51.640;9.566;2023-03-14T08:18:32;3.35;;;1.50;;
38609;SDS011;24367;51.640;9.566;2023-03-14T08:20:59;3.88;;;1.33;;
38609;SDS011;24367;51.640;9.566;2023-03-14T08:23:27;3.38;;;1.25;;
38609;SDS011;24367;51.640;9.566;2023-03-14T08:25:53;2.85;;;1.20;;
38609;SDS011;24367;51.640;9.566;2023-03-14T08:28:20;3.40;;;1.20;;
38609;SDS011;24367;51.640;9.566;2023-03-14T08:30:46;3.35;;;1.30;;
38609;SDS011;24367;51.640;9.566;2023-03-14T08:33:12;2.08;;;1.15;;
38609;SDS011;24367;51.640;9.566;2023-03-14T08:35:39;3.83;;;1.30;;
38609;SDS011;24367;51.640;9.566;2023-03-14T08:38:05;3.20;;;1.30;;
38609;SDS011;24367;51.640;9.566;2023-03-14T08:40:33;3.10;;;1.00;;
38609;SDS011;24367;51.640;9.566;2023-03-14T08:42:59;2.35;;;1.02;;
38609;SDS011;24367;51.640;9.566;2023-03-14T08:45:26;4.28;;;1.38;;
38609;SDS011;24367;51.640;9.566;2023-03-14T08:47:52;3.60;;;1.00;;
38609;SDS011;24367;51.640;9.566;2023-03-14T08:50:19;2.70;;;1.10;;
38609;SDS011;24367;51.640;9.566;2023-03-14T08:52:45;4.80;;;1.15;;
38609;SDS011;24367;51.640;9.566;2023-03-14T08:55:11;4.93;;;1.25;;
38609;SDS011;24367;51.640;9.566;2023-03-14T08:57:39;2.30;;;1.25;;
38609;SDS011;24367;51.640;9.566;2023-03-14T09:00:06;4.28;;;1.33;;
38609;SDS011;24367;51.640;9.566;2023-03-14T09:02:37;4.07;;;1.50;;
38609;SDS011;24367;51.640;9.566;2023-03-14T09:05:03;3.20;;;1.13;;
38609;SDS011;24367;51.640;9.566;2023-03-14T09:07:30;3.63;;;1.10;;
38609;SDS011;24367;51.640;9.566;2023-03-14T09:09:57;3.15;;;1.30;;
38609;SDS011;24367;51.640;9.566;2023-03-14T09:12:23;3.58;;;1.33;;
38609;SDS011;24367;51.640;9.566;2023-03-14T09:14:51;2.33;;;1.00;;
38609;SDS011;24367;51.640;9.566;2023-03-14T09:17:17;2.60;;;1.35;;
38609;SDS011;24367;51.640;9.566;2023-03-14T09:19:43;2.97;;;1.30;;
38609;SDS011;24367;51.640;9.566;2023-03-14T09:22:10;2.95;;;1.20;;
38609;SDS011;24367;51.640;9.566;2023-03-14T09:24:36;2.42;;;1.00;;
38609;SDS011;24367;51.640;9.566;2023-03-14T09:27:03;4.35;;;1.08;;
38609;SDS011;24367;51.640;9.566;2023-03-14T09:29:29;2.85;;;1.20;;
38609;SDS011;24367;51.640;9.566;2023-03-14T09:31:57;1.52;;;0.80;;
38609;SDS011;24367;51.640;9.566;2023-03-14T09:34:24;4.32;;;1.15;;
38609;SDS011;24367;51.640;9.566;2023-03-14T09:36:50;7.60;;;1.13;;
38609;SDS011;24367;51.640;9.566;2023-03-14T09:39:17;2.70;;;1.20;;
38609;SDS011;24367;51.640;9.566;2023-03-14T09:41:44;3.30;;;1.15;;
38609;SDS011;24367;51.640;9.566;2023-03-14T09:44:13;3.20;;;0.93;;
38609;SDS011;24367;51.640;9.566;2023-03-14T09:46:41;7.35;;;1.17;;
38609;SDS011;24367;51.640;9.566;2023-03-14T09:49:11;11.98;;;1.33;;
38609;SDS011;24367;51.640;9.566;2023-03-14T09:51:39;2.40;;;1.00;;
38609;SDS011;24367;51.640;9.566;2023-03-14T09:54:08;2.15;;;0.90;;
38609;SDS011;24367;51.640;9.566;2023-03-14T09:56:44;2.15;;;0.90;;
38609;SDS011;24367;51.640;9.566;2023-03-14T09:59:11;3.85;;;1.20;;
38609;SDS011;24367;51.640;9.566;2023-03-14T10:01:39;2.25;;;1.00;;
38609;SDS011;24367;51.640;9.566;2023-03-14T10:04:09;2.13;;;1.00;;
38609;SDS011;24367;51.640;9.566;2023-03-14T10:06:39;2.80;;;1.00;;
38609;SDS011;24367;51.640;9.566;2023-03-14T10:09:05;1.88;;;0.80;;
38609;SDS011;24367;51.640;9.566;2023-03-14T10:11:31;1.70;;;0.90;;
38609;SDS011;24367;51.640;9.566;2023-03-14T10:14:02;1.70;;;1.00;;
38609;SDS011;24367;51.640;9.566;2023-03-14T10:16:32;2.08;;;0.93;;
38609;SDS011;24367;51.640;9.566;2023-03-14T10:19:01;3.08;;;1.05;;
38609;SDS011;24367;51.640;9.566;2023-03-14T10:21:30;1.98;;;0.88;;
38609;SDS011;24367;51.640;9.566;2023-03-14T10:24:08;2.03;;;0.95;;
38609;SDS011;24367;51.640;9.566;2023-03-14T10:26:36;2.00;;;0.80;;
38609;SDS011;24367;51.640;9.566;2023-03-14T10:29:03;1.83;;;0.90;;
38609;SDS011;24367;51.640;9.566;2023-03-14T10:31:45;1.77;;;0.80;;
38609;SDS011;24367;51.640;9.566;2023-03-14T10:34:15;2.42;;;1.00;;
38609;SDS011;24367;51.640;9.566;2023-03-14T10:36:43;2.70;;;0.80;;
38609;SDS011;24367;51.640;9.566;2023-03-14T10:39:22;1.70;;;0.77;;
38609;SDS011;24367;51.640;9.566;2023-03-14T10:41:52;2.72;;;0.90;;
38609;SDS011;24367;51.640;9.566;2023-03-14T10:44:20;1.92;;;0.90;;
38609;SDS011;24367;51.640;9.566;2023-03-14T10:46:53;3.13;;;1.10;;
38609;SDS011;24367;51.640;9.566;2023-03-14T10:49:26;1.67;;;0.70;;
38609;SDS011;24367;51.640;9.566;2023-03-14T10:51:56;1.85;;;0.95;;
38609;SDS011;24367;51.640;9.566;2023-03-14T10:54:29;2.33;;;1.00;;
38609;SDS011;24367;51.640;9.566;2023-03-14T10:56:56;2.72;;;0.88;;
38609;SDS011;24367;51.640;9.566;2023-03-14T10:59:23;1.95;;;1.00;;
38609;SDS011;24367;51.640;9.566;2023-03-14T11:01:52;1.70;;;0.80;;
38609;SDS011;24367;51.640;9.566;2023-03-14T11:04:24;1.67;;;0.88;;
38609;SDS011;24367;51.640;9.566;2023-03-14T11:07:03;1.40;;;0.70;;
38609;SDS011;24367;51.640;9.566;2023-03-14T11:09:34;1.85;;;1.00;;
38609;SDS011;24367;51.640;9.566;2023-03-14T11:12:03;1.67;;;0.75;;
38609;SDS011;24367;51.640;9.566;2023-03-14T11:14:41;2.17;;;0.82;;
38609;SDS011;24367;51.640;9.566;2023-03-14T11:17:10;1.90;;;0.90;;
38609;SDS011;24367;51.640;9.566;2023-03-14T11:19:42;1.80;;;0.75;;
38609;SDS011;24367;51.640;9.566;2023-03-14T11:22:23;2.10;;;1.10;;
38609;SDS011;24367;51.640;9.566;2023-03-14T11:24:56;1.48;;;0.85;;
38609;SDS011;24367;51.640;9.566;2023-03-14T11:27:30;2.25;;;0.60;;
38609;SDS011;24367;51.640;9.566;2023-03-14T11:30:04;2.08;;;0.90;;
38609;SDS011;24367;51.640;9.566;2023-03-14T11:32:35;2.20;;;0.88;;
38609;SDS011;24367;51.640;9.566;2023-03-14T11:35:07;1.38;;;0.75;;
38609;SDS011;24367;51.640;9.566;2023-03-14T11:37:44;1.85;;;0.75;;
38609;SDS011;24367;51.640;9.566;2023-03-14T11:40:13;2.03;;;0.70;;
38609;SDS011;24367;51.640;9.566;2023-03-14T11:42:41;1.73;;;0.70;;
38609;SDS011;24367;51.640;9.566;2023-03-14T11:45:12;1.58;;;0.80;;
38609;SDS011;24367;51.640;9.566;2023-03-14T11:47:43;1.75;;;0.75;;
38609;SDS011;24367;51.640;9.566;2023-03-14T11:50:12;1.10;;;0.60;;
38609;SDS011;24367;51.640;9.566;2023-03-14T11:52:45;2.25;;;0.73;;
38609;SDS011;24367;51.640;9.566;2023-03-14T11:55:16;1.77;;;0.73;;
38609;SDS011;24367;51.640;9.566;2023-03-14T11:57:44;1.17;;;0.60;;
38609;SDS011;24367;51.640;9.566;2023-03-14T12:00:14;1.50;;;0.80;;
38609;SDS011;24367;51.640;9.566;2023-03-14T12:02:44;1.30;;;0.80;;
38609;SDS011;24367;51.640;9.566;2023-03-14T12:05:23;1.42;;;0.68;;
38609;SDS011;24367;51.640;9.566;2023-03-14T12:08:09;1.30;;;0.68;;
38609;SDS011;24367;51.640;9.566;2023-03-14T12:10:46;2.35;;;0.82;;
38609;SDS011;24367;51.640;9.566;2023-03-14T12:13:15;1.52;;;0.60;;
38609;SDS011;24367;51.640;9.566;2023-03-14T12:15:46;1.33;;;0.70;;
38609;SDS011;24367;51.640;9.566;2023-03-14T12:18:18;1.80;;;0.80;;
38609;SDS011;24367;51.640;9.566;2023-03-14T12:20:50;2.55;;;0.77;;
38609;SDS011;24367;51.640;9.566;2023-03-14T12:23:19;2.60;;;0.88;;
38609;SDS011;24367;51.640;9.566;2023-03-14T12:25:46;1.67;;;0.63;;
38609;SDS011;24367;51.640;9.566;2023-03-14T12:28:19;1.83;;;0.60;;
38609;SDS011;24367;51.640;9.566;2023-03-14T12:30:46;4.82;;;0.90;;
38609;SDS011;24367;51.640;9.566;2023-03-14T12:38:29;1.50;;;0.65;;
38609;SDS011;24367;51.640;9.566;2023-03-14T12:41:05;4.70;;;0.93;;
38609;SDS011;24367;51.640;9.566;2023-03-14T12:43:34;2.03;;;0.70;;
38609;SDS011;24367;51.640;9.566;2023-03-14T12:46:14;1.75;;;0.88;;
38609;SDS011;24367;51.640;9.566;2023-03-14T12:48:42;1.02;;;0.50;;
38609;SDS011;24367;51.640;9.566;2023-03-14T12:51:12;1.10;;;0.60;;
38609;SDS011;24367;51.640;9.566;2023-03-14T12:53:59;1.33;;;0.68;;
38609;SDS011;24367;51.640;9.566;2023-03-14T12:56:39;1.70;;;0.68;;
38609;SDS011;24367;51.640;9.566;2023-03-14T12:59:16;1.23;;;0.60;;
38609;SDS011;24367;51.640;9.566;2023-03-14T13:01:54;1.38;;;0.50;;
38609;SDS011;24367;51.640;9.566;2023-03-14T13:04:26;1.58;;;0.60;;
38609;SDS011;24367;51.640;9.566;2023-03-14T13:06:55;1.90;;;0.68;;
38609;SDS011;24367;51.640;9.566;2023-03-14T13:12:28;1.95;;;0.65;;
38609;SDS011;24367;51.640;9.566;2023-03-14T13:14:59;1.25;;;0.60;;
38609;SDS011;24367;51.640;9.566;2023-03-14T13:17:28;1.45;;;0.73;;
38609;SDS011;24367;51.640;9.566;2023-03-14T13:19:57;2.05;;;0.77;;
38609;SDS011;24367;51.640;9.566;2023-03-14T13:22:28;1.25;;;0.68;;
38609;SDS011;24367;51.640;9.566;2023-03-14T13:24:58;1.25;;;0.70;;
38609;SDS011;24367;51.640;9.566;2023-03-14T13:27:29;1.02;;;0.60;;
38609;SDS011;24367;51.640;9.566;2023-03-14T13:29:56;1.52;;;0.52;;
38609;SDS011;24367;51.640;9.566;2023-03-14T13:32:25;0.93;;;0.50;;
38609;SDS011;24367;51.640;9.566;2023-03-14T13:34:55;1.23;;;0.50;;
38609;SDS011;24367;51.640;9.566;2023-03-14T13:37:22;1.13;;;0.50;;
38609;SDS011;24367;51.640;9.566;2023-03-14T13:39:50;1.70;;;0.77;;
38609;SDS011;24367;51.640;9.566;2023-03-14T13:42:18;1.35;;;0.68;;
38609;SDS011;24367;51.640;9.566;2023-03-14T13:44:46;1.23;;;0.70;;
38609;SDS011;24367;51.640;9.566;2023-03-14T13:47:14;1.13;;;0.60;;
38609;SDS011;24367;51.640;9.566;2023-03-14T13:49:41;1.30;;;0.70;;
38609;SDS011;24367;51.640;9.566;2023-03-14T13:52:22;1.95;;;0.77;;
38609;SDS011;24367;51.640;9.566;2023-03-14T13:54:52;1.75;;;0.80;;
38609;SDS011;24367;51.640;9.566;2023-03-14T13:57:19;1.55;;;0.60;;
38609;SDS011;24367;51.640;9.566;2023-03-14T13:59:59;2.55;;;0.88;;
38609;SDS011;24367;51.640;9.566;2023-03-14T14:02:30;2.67;;;0.60;;
38609;SDS011;24367;51.640;9.566;2023-03-14T14:04:57;1.33;;;0.50;;
38609;SDS011;24367;51.640;9.566;2023-03-14T14:07:24;1.88;;;0.80;;
38609;SDS011;24367;51.640;9.566;2023-03-14T14:09:51;1.20;;;0.52;;
38609;SDS011;24367;51.640;9.566;2023-03-14T14:12:19;1.77;;;0.60;;
38609;SDS011;24367;51.640;9.566;2023-03-14T14:14:51;0.70;;;0.47;;
38609;SDS011;24367;51.640;9.566;2023-03-14T14:17:21;0.70;;;0.40;;
38609;SDS011;24367;51.640;9.566;2023-03-14T14:19:52;1.10;;;0.55;;
38609;SDS011;24367;51.640;9.566;2023-03-14T14:22:18;1.30;;;0.43;;
38609;SDS011;24367;51.640;9.566;2023-03-14T14:24:45;7.32;;;0.80;;
38609;SDS011;24367;51.640;9.566;2023-03-14T14:27:13;1.63;;;0.70;;
38609;SDS011;24367;51.640;9.566;2023-03-14T14:29:40;2.28;;;0.90;;
38609;SDS011;24367;51.640;9.566;2023-03-14T14:32:10;0.98;;;0.40;;
38609;SDS011;24367;51.640;9.566;2023-03-14T14:34:39;1.00;;;0.50;;
38609;SDS011;24367;51.640;9.566;2023-03-14T14:39:50;3.58;;;0.82;;
38609;SDS011;24367;51.640;9.566;2023-03-14T14:42:18;1.38;;;0.60;;
38609;SDS011;24367;51.640;9.566;2023-03-14T14:44:47;1.98;;;0.68;;
38609;SDS011;24367;51.640;9.566;2023-03-14T14:47:15;2.90;;;0.63;;
38609;SDS011;24367;51.640;9.566;2023-03-14T14:49:44;1.63;;;0.70;;
38609;SDS011;24367;51.640;9.566;2023-03-14T14:52:14;3.58;;;0.82;;
38609;SDS011;24367;51.640;9.566;2023-03-14T14:54:43;1.35;;;0.50;;
38609;SDS011;24367;51.640;9.566;2023-03-14T14:57:17;2.08;;;0.50;;
38609;SDS011;24367;51.640;9.566;2023-03-14T14:59:45;3.67;;;0.70;;
38609;SDS011;24367;51.640;9.566;2023-03-14T15:02:24;2.65;;;0.50;;
38609;SDS011;24367;51.640;9.566;2023-03-14T15:04:55;1.02;;;0.55;;
38609;SDS011;24367;51.640;9.566;2023-03-14T15:07:22;0.60;;;0.40;;
38609;SDS011;24367;51.640;9.566;2023-03-14T15:09:48;1.10;;;0.55;;
38609;SDS011;24367;51.640;9.566;2023-03-14T15:12:15;1.35;;;0.77;;
38609;SDS011;24367;51.640;9.566;2023-03-14T15:14:41;1.15;;;0.57;;
38609;SDS011;24367;51.640;9.566;2023-03-14T15:17:09;1.33;;;0.50;;
38609;SDS011;24367;51.640;9.566;2023-03-14T15:19:37;2.47;;;0.60;;
38609;SDS011;24367;51.640;9.566;2023-03-14T15:22:07;0.80;;;0.40;;
38609;SDS011;24367;51.640;9.566;2023-03-14T15:24:36;1.33;;;0.65;;
38609;SDS011;24367;51.640;9.566;2023-03-14T15:27:02;2.38;;;0.50;;